This is the latest recevied weather packets stored in our database for station/object HOWARD. If no packets are shown the sender has not sent any weather packets the latest 1 day(s).
| Time | Temp. | Humidity | Pressure | Rain* | Wind** | Luminosity | Snow |
|---|---|---|---|---|---|---|---|
| 1778024508 | 7.78° C | 65% | 1010.9 hPa | 0 mm | 2.68 m/s, 354° | - | - |
| 1778023909 | 7.78° C | 62% | 1010.8 hPa | 0 mm | 1.79 m/s, 350° | - | - |
| 1778023348 | 8.33° C | 64% | 1010.8 hPa | 0 mm | 2.24 m/s, 336° | - | - |
| 1778023308 | 8.33° C | 64% | 1010.8 hPa | 0 mm | 2.24 m/s, 336° | - | - |
| 1778022708 | 7.78° C | 62% | 1010.8 hPa | 0 mm | 2.68 m/s, 337° | - | - |
| 1778022108 | 7.78° C | 62% | 1010.9 hPa | 0 mm | 2.24 m/s, 344° | - | - |
| 1778021546 | 8.33° C | 62% | 1011 hPa | 0 mm | 2.68 m/s, 342° | - | - |
| 1778021508 | 8.33° C | 62% | 1011 hPa | 0 mm | 2.68 m/s, 342° | - | - |
| 1778020908 | 7.78° C | 61% | 1010.9 hPa | 0 mm | 4.02 m/s, 341° | - | - |
| 1778020309 | 8.89° C | 58% | 1011 hPa | 0 mm | 2.68 m/s, 343° | - | - |
| 1778019708 | 8.89° C | 58% | 1011 hPa | 0 mm | 1.79 m/s, 334° | - | - |
| 1778019108 | 8.89° C | 58% | 1011.1 hPa | 0 mm | 2.24 m/s, 313° | - | - |
| 1778018509 | 8.33° C | 59% | 1011.1 hPa | 0 mm | 1.34 m/s, 353° | - | - |
| 1778017908 | 7.78° C | 59% | 1011.1 hPa | 0 mm | 1.79 m/s, 304° | - | - |
| 1778017309 | 8.33° C | 58% | 1011.1 hPa | 0 mm | 2.24 m/s, 4° | - | - |
| 1778016708 | 8.33° C | 59% | 1011.2 hPa | 0 mm | 3.13 m/s, 343° | - | - |
| 1778016108 | 8.33° C | 60% | 1011.1 hPa | 0 mm | 0.89 m/s, 348° | - | - |
| 1778015508 | 7.78° C | 62% | 1011.1 hPa | 0 mm | 1.79 m/s, 306° | - | - |
| 1778014909 | 8.33° C | 59% | 1011.2 hPa | 0 mm | 2.68 m/s, 309° | - | - |
| 1778014308 | 8.33° C | 60% | 1011.2 hPa | 0 mm | 3.13 m/s, 294° | - | - |
| 1778013708 | 7.78° C | 63% | 1011.2 hPa | 0 mm | 1.79 m/s, 342° | - | - |
| 1778013109 | 8.89° C | 59% | 1011.1 hPa | 0 mm | 0.89 m/s, 350° | - | - |
| 1778012508 | 8.33° C | 62% | 1011.1 hPa | 0 mm | 1.79 m/s, 333° | - | - |
| 1778011908 | 8.89° C | 59% | 1011.1 hPa | 0 mm | 3.58 m/s, 295° | - | - |
| 1778011309 | 7.78° C | 59% | 1011.2 hPa | 0 mm | 3.58 m/s, 325° | - | - |
* Rain latest hour (hover to see other rain measurements)
** Current wind speed in m/s (hover to see current wind gust speed)